Xanthi, Greece
Current Conditions -  °F | °C
As of 1:20 PM on Sunday 21 Dec 2014 (Local Time) from LGKV Reporting Station
Scattered Clouds Scattered Clouds  
Wind Chill: 50°   Ceiling: Unl
Heat Index: 50°   Visibility: 6mi
Dew Point: 45°   Wind: 0mph
Humidity: 82%   Direction: NA
Pressure: 30.03"   Gusts: NA
Location:  41.14°N, 24.88°E
Report Text: LGKV 211120Z 00000KT 9999 FEW020 SCT080 10/07 Q1017
Loading
Personal Weather Stations






























Interactive Weather Map New forecast layout! Learn more

10-Day Weather Forecast

Advertisements
Track Severe Weather on mobile